sensor_id;sensor_type;location;lat;lon;timestamp;pressure;altitude;pressure_sealevel;temperature;humidity
22657;BME280;11495;55.610;12.100;2022-11-20T00:01:46;101139.03;;;0.44;0.00
22657;BME280;11495;55.610;12.100;2022-11-20T00:04:12;101124.87;;;0.42;0.00
22657;BME280;11495;55.610;12.100;2022-11-20T00:06:37;101115.88;;;0.41;0.00
22657;BME280;11495;55.610;12.100;2022-11-20T00:09:03;101098.41;;;0.37;0.00
22657;BME280;11495;55.610;12.100;2022-11-20T00:14:08;101071.78;;;0.34;0.00
22657;BME280;11495;55.610;12.100;2022-11-20T00:16:34;101043.91;;;0.34;0.00
22657;BME280;11495;55.610;12.100;2022-11-20T00:18:59;101044.91;;;0.33;0.00
22657;BME280;11495;55.610;12.100;2022-11-20T00:21:26;101035.94;;;0.32;0.00
22657;BME280;11495;55.610;12.100;2022-11-20T00:23:52;101016.59;;;0.28;0.00
22657;BME280;11495;55.610;12.100;2022-11-20T00:26:19;101008.50;;;0.28;0.00
22657;BME280;11495;55.610;12.100;2022-11-20T00:28:48;100994.56;;;0.25;0.00
22657;BME280;11495;55.610;12.100;2022-11-20T00:31:15;100992.44;;;0.20;0.00
22657;BME280;11495;55.610;12.100;2022-11-20T00:33:40;100978.94;;;0.20;0.00
22657;BME280;11495;55.610;12.100;2022-11-20T00:36:07;100967.69;;;0.23;0.00
22657;BME280;11495;55.610;12.100;2022-11-20T00:38:32;100951.69;;;0.22;0.00
22657;BME280;11495;55.610;12.100;2022-11-20T00:40:59;100943.56;;;0.22;0.00
22657;BME280;11495;55.610;12.100;2022-11-20T00:43:24;100924.84;;;0.20;0.00
22657;BME280;11495;55.610;12.100;2022-11-20T00:45:50;100925.06;;;0.19;0.00
22657;BME280;11495;55.610;12.100;2022-11-20T00:48:15;100913.41;;;0.18;0.00
22657;BME280;11495;55.610;12.100;2022-11-20T00:50:41;100902.78;;;0.10;0.00
22657;BME280;11495;55.610;12.100;2022-11-20T00:53:10;100886.78;;;0.09;0.00
22657;BME280;11495;55.610;12.100;2022-11-20T00:55:35;100883.63;;;0.05;0.00
22657;BME280;11495;55.610;12.100;2022-11-20T00:58:00;100876.34;;;0.06;0.00
22657;BME280;11495;55.610;12.100;2022-11-20T01:03:02;100858.66;;;-0.04;0.00
22657;BME280;11495;55.610;12.100;2022-11-20T01:05:27;100852.19;;;-0.09;0.00
22657;BME280;11495;55.610;12.100;2022-11-20T01:07:53;100838.88;;;-0.17;0.00
22657;BME280;11495;55.610;12.100;2022-11-20T01:10:18;100840.97;;;-0.13;0.00
22657;BME280;11495;55.610;12.100;2022-11-20T01:12:43;100840.94;;;-0.19;0.00
22657;BME280;11495;55.610;12.100;2022-11-20T01:15:28;100834.47;;;-0.25;0.00
22657;BME280;11495;55.610;12.100;2022-11-20T01:17:54;100818.91;;;-0.30;0.00
22657;BME280;11495;55.610;12.100;2022-11-20T01:22:57;100805.41;;;-0.30;0.00
22657;BME280;11495;55.610;12.100;2022-11-20T01:25:22;100798.53;;;-0.32;0.00
22657;BME280;11495;55.610;12.100;2022-11-20T01:27:47;100800.00;;;-0.30;0.00
22657;BME280;11495;55.610;12.100;2022-11-20T01:30:13;100791.25;;;-0.32;0.00
22657;BME280;11495;55.610;12.100;2022-11-20T01:32:38;100789.81;;;-0.28;0.00
22657;BME280;11495;55.610;12.100;2022-11-20T01:35:04;100786.72;;;-0.24;0.00
22657;BME280;11495;55.610;12.100;2022-11-20T01:37:29;100786.50;;;-0.23;0.00
22657;BME280;11495;55.610;12.100;2022-11-20T01:39:54;100781.91;;;-0.22;0.00
22657;BME280;11495;55.610;12.100;2022-11-20T01:42:19;100780.47;;;-0.18;0.00
22657;BME280;11495;55.610;12.100;2022-11-20T01:45:42;100774.00;;;-0.17;0.00
22657;BME280;11495;55.610;12.100;2022-11-20T01:47:48;100770.31;;;-0.16;0.00
22657;BME280;11495;55.610;12.100;2022-11-20T01:50:22;100774.66;;;-0.15;0.00
22657;BME280;11495;55.610;12.100;2022-11-20T01:52:54;100764.25;;;-0.12;0.00
22657;BME280;11495;55.610;12.100;2022-11-20T01:55:22;100748.87;;;-0.11;0.00
22657;BME280;11495;55.610;12.100;2022-11-20T01:57:48;100759.69;;;-0.11;0.00
22657;BME280;11495;55.610;12.100;2022-11-20T02:00:15;100750.53;;;-0.10;0.00
22657;BME280;11495;55.610;12.100;2022-11-20T02:02:42;100750.53;;;-0.10;0.00
22657;BME280;11495;55.610;12.100;2022-11-20T02:07:44;100755.72;;;-0.09;0.00
22657;BME280;11495;55.610;12.100;2022-11-20T02:10:10;100749.50;;;-0.09;0.00
22657;BME280;11495;55.610;12.100;2022-11-20T02:12:36;100750.13;;;-0.07;0.00
22657;BME280;11495;55.610;12.100;2022-11-20T02:15:20;100737.66;;;-0.08;0.00
22657;BME280;11495;55.610;12.100;2022-11-20T02:17:45;100738.91;;;-0.04;0.00
22657;BME280;11495;55.610;12.100;2022-11-20T02:20:11;100745.34;;;-0.05;0.00
22657;BME280;11495;55.610;12.100;2022-11-20T02:22:57;100737.66;;;-0.08;0.00
22657;BME280;11495;55.610;12.100;2022-11-20T02:25:24;100743.91;;;-0.08;0.00
22657;BME280;11495;55.610;12.100;2022-11-20T02:27:51;100736.41;;;-0.12;0.00
22657;BME280;11495;55.610;12.100;2022-11-20T02:30:16;100742.84;;;-0.13;0.00
22657;BME280;11495;55.610;12.100;2022-11-20T02:32:42;100747.62;;;-0.15;0.00
22657;BME280;11495;55.610;12.100;2022-11-20T02:37:49;100745.75;;;-0.21;0.00
22657;BME280;11495;55.610;12.100;2022-11-20T02:40:16;100753.84;;;-0.21;0.00
22657;BME280;11495;55.610;12.100;2022-11-20T02:42:41;100756.56;;;-0.21;0.00
22657;BME280;11495;55.610;12.100;2022-11-20T02:45:07;100745.94;;;-0.30;0.00
22657;BME280;11495;55.610;12.100;2022-11-20T02:47:32;100754.03;;;-0.36;0.00
22657;BME280;11495;55.610;12.100;2022-11-20T02:49:57;100746.13;;;-0.44;0.00
22657;BME280;11495;55.610;12.100;2022-11-20T02:52:23;100758.38;;;-0.55;0.00
22657;BME280;11495;55.610;12.100;2022-11-20T02:54:50;100756.69;;;-0.63;0.00
22657;BME280;11495;55.610;12.100;2022-11-20T02:57:15;100765.38;;;-0.67;0.00
22657;BME280;11495;55.610;12.100;2022-11-20T02:59:41;100768.50;;;-0.70;0.00
22657;BME280;11495;55.610;12.100;2022-11-20T03:02:06;100772.47;;;-0.73;0.00
22657;BME280;11495;55.610;12.100;2022-11-20T03:04:31;100776.78;;;-0.78;0.00
22657;BME280;11495;55.610;12.100;2022-11-20T03:06:56;100786.50;;;-0.84;0.00
22657;BME280;11495;55.610;12.100;2022-11-20T03:09:22;100779.03;;;-0.89;0.00
22657;BME280;11495;55.610;12.100;2022-11-20T03:11:47;100776.94;;;-0.93;0.00
22657;BME280;11495;55.610;12.100;2022-11-20T03:14:12;100786.47;;;-0.97;0.00
22657;BME280;11495;55.610;12.100;2022-11-20T03:16:38;100792.72;;;-0.97;0.00
22657;BME280;11495;55.610;12.100;2022-11-20T03:19:03;100787.09;;;-0.95;0.00
22657;BME280;11495;55.610;12.100;2022-11-20T03:21:30;100801.84;;;-0.98;0.00
22657;BME280;11495;55.610;12.100;2022-11-20T03:23:57;100796.03;;;-0.95;0.00
22657;BME280;11495;55.610;12.100;2022-11-20T03:26:24;100799.72;;;-1.02;0.00
22657;BME280;11495;55.610;12.100;2022-11-20T03:28:50;100800.97;;;-1.05;0.00
22657;BME280;11495;55.610;12.100;2022-11-20T03:31:17;100796.37;;;-1.11;0.00
22657;BME280;11495;55.610;12.100;2022-11-20T03:33:43;100801.75;;;-1.11;0.00
22657;BME280;11495;55.610;12.100;2022-11-20T03:38:42;100794.28;;;-1.09;0.00
22657;BME280;11495;55.610;12.100;2022-11-20T03:41:09;100793.03;;;-1.13;0.00
22657;BME280;11495;55.610;12.100;2022-11-20T03:43:35;100795.69;;;-1.20;0.00
22657;BME280;11495;55.610;12.100;2022-11-20T03:46:01;100798.59;;;-1.21;0.00
22657;BME280;11495;55.610;12.100;2022-11-20T03:48:26;100798.75;;;-1.29;0.00
22657;BME280;11495;55.610;12.100;2022-11-20T03:50:52;100794.78;;;-1.33;0.00
22657;BME280;11495;55.610;12.100;2022-11-20T03:53:18;100799.53;;;-1.35;0.00
22657;BME280;11495;55.610;12.100;2022-11-20T03:55:44;100805.97;;;-1.36;0.00
22657;BME280;11495;55.610;12.100;2022-11-20T03:58:09;100809.09;;;-1.33;0.00
22657;BME280;11495;55.610;12.100;2022-11-20T04:00:39;100814.69;;;-1.34;0.00
22657;BME280;11495;55.610;12.100;2022-11-20T04:03:04;100825.88;;;-1.37;0.00
22657;BME280;11495;55.610;12.100;2022-11-20T04:05:30;100824.78;;;-1.43;0.00
22657;BME280;11495;55.610;12.100;2022-11-20T04:07:55;100829.75;;;-1.47;0.00
22657;BME280;11495;55.610;12.100;2022-11-20T04:10:20;100829.13;;;-1.49;0.00
22657;BME280;11495;55.610;12.100;2022-11-20T04:12:45;100837.59;;;-1.52;0.00
22657;BME280;11495;55.610;12.100;2022-11-20T04:15:11;100827.44;;;-1.50;0.00
22657;BME280;11495;55.610;12.100;2022-11-20T04:17:36;100836.75;;;-1.52;0.00
22657;BME280;11495;55.610;12.100;2022-11-20T04:20:02;100837.75;;;-1.60;0.00
22657;BME280;11495;55.610;12.100;2022-11-20T04:22:28;100842.50;;;-1.62;0.00
22657;BME280;11495;55.610;12.100;2022-11-20T04:24:53;100843.13;;;-1.60;0.00
22657;BME280;11495;55.610;12.100;2022-11-20T04:27:18;100839.41;;;-1.59;0.00
22657;BME280;11495;55.610;12.100;2022-11-20T04:29:43;100847.75;;;-1.54;0.00
22657;BME280;11495;55.610;12.100;2022-11-20T04:32:09;100846.53;;;-1.51;0.00
22657;BME280;11495;55.610;12.100;2022-11-20T04:34:34;100848.00;;;-1.49;0.00
22657;BME280;11495;55.610;12.100;2022-11-20T04:37:00;100854.22;;;-1.48;0.00
22657;BME280;11495;55.610;12.100;2022-11-20T04:39:25;100851.56;;;-1.42;0.00
22657;BME280;11495;55.610;12.100;2022-11-20T04:41:50;100849.94;;;-1.36;0.00
22657;BME280;11495;55.610;12.100;2022-11-20T04:44:38;100841.47;;;-1.33;0.00
22657;BME280;11495;55.610;12.100;2022-11-20T04:47:04;100844.81;;;-1.31;0.00
22657;BME280;11495;55.610;12.100;2022-11-20T04:49:29;100844.81;;;-1.31;0.00
22657;BME280;11495;55.610;12.100;2022-11-20T04:51:57;100843.31;;;-1.33;0.00
22657;BME280;11495;55.610;12.100;2022-11-20T04:54:22;100849.28;;;-1.45;0.00
22657;BME280;11495;55.610;12.100;2022-11-20T04:56:48;100849.47;;;-1.46;0.00
22657;BME280;11495;55.610;12.100;2022-11-20T04:59:13;100856.03;;;-1.55;0.00
22657;BME280;11495;55.610;12.100;2022-11-20T05:01:38;100856.38;;;-1.65;0.00
22657;BME280;11495;55.610;12.100;2022-11-20T05:04:04;100862.16;;;-1.68;0.00
22657;BME280;11495;55.610;12.100;2022-11-20T05:06:29;100857.34;;;-1.73;0.00
22657;BME280;11495;55.610;12.100;2022-11-20T05:08:54;100862.22;;;-1.83;0.00
22657;BME280;11495;55.610;12.100;2022-11-20T05:11:20;100874.03;;;-1.84;0.00
22657;BME280;11495;55.610;12.100;2022-11-20T05:13:46;100870.75;;;-1.79;0.00
22657;BME280;11495;55.610;12.100;2022-11-20T05:16:29;100869.22;;;-1.88;0.00
22657;BME280;11495;55.610;12.100;2022-11-20T05:18:54;100871.03;;;-1.95;0.00
22657;BME280;11495;55.610;12.100;2022-11-20T05:21:20;100872.81;;;-2.03;0.00
22657;BME280;11495;55.610;12.100;2022-11-20T05:23:46;100877.28;;;-2.10;0.00
22657;BME280;11495;55.610;12.100;2022-11-20T05:26:16;100888.37;;;-2.19;0.00
22657;BME280;11495;55.610;12.100;2022-11-20T05:28:41;100893.69;;;-2.26;0.00
22657;BME280;11495;55.610;12.100;2022-11-20T05:31:07;100888.78;;;-2.22;0.00
22657;BME280;11495;55.610;12.100;2022-11-20T05:33:34;100877.53;;;-2.26;0.00
22657;BME280;11495;55.610;12.100;2022-11-20T05:36:00;100888.31;;;-2.26;0.00
22657;BME280;11495;55.610;12.100;2022-11-20T05:38:25;100881.25;;;-2.27;0.00
22657;BME280;11495;55.610;12.100;2022-11-20T05:40:50;100892.41;;;-2.30;0.00
22657;BME280;11495;55.610;12.100;2022-11-20T05:43:16;100879.16;;;-2.32;0.00
22657;BME280;11495;55.610;12.100;2022-11-20T05:45:41;100887.47;;;-2.27;0.00
22657;BME280;11495;55.610;12.100;2022-11-20T05:48:06;100884.22;;;-2.22;0.00
22657;BME280;11495;55.610;12.100;2022-11-20T05:50:32;100885.69;;;-2.19;0.00
22657;BME280;11495;55.610;12.100;2022-11-20T05:53:00;100878.63;;;-2.20;0.00
22657;BME280;11495;55.610;12.100;2022-11-20T05:55:26;100880.09;;;-2.18;0.00
22657;BME280;11495;55.610;12.100;2022-11-20T05:57:52;100878.16;;;-2.24;0.00
22657;BME280;11495;55.610;12.100;2022-11-20T06:00:18;100872.97;;;-2.26;0.00
22657;BME280;11495;55.610;12.100;2022-11-20T06:02:43;100874.19;;;-2.28;0.00
22657;BME280;11495;55.610;12.100;2022-11-20T06:05:09;100874.59;;;-2.31;0.00
22657;BME280;11495;55.610;12.100;2022-11-20T06:07:34;100880.13;;;-2.33;0.00
22657;BME280;11495;55.610;12.100;2022-11-20T06:09:59;100871.13;;;-2.25;0.00
22657;BME280;11495;55.610;12.100;2022-11-20T06:12:25;100874.72;;;-2.18;0.00
22657;BME280;11495;55.610;12.100;2022-11-20T06:14:50;100870.63;;;-2.14;0.00
22657;BME280;11495;55.610;12.100;2022-11-20T06:17:15;100866.63;;;-2.18;0.00
22657;BME280;11495;55.610;12.100;2022-11-20T06:19:40;100867.66;;;-2.19;0.00
22657;BME280;11495;55.610;12.100;2022-11-20T06:22:06;100873.69;;;-2.17;0.00
22657;BME280;11495;55.610;12.100;2022-11-20T06:24:31;100874.72;;;-2.18;0.00
22657;BME280;11495;55.610;12.100;2022-11-20T06:26:56;100877.72;;;-2.28;0.00
22657;BME280;11495;55.610;12.100;2022-11-20T06:29:21;100882.47;;;-2.30;0.00
22657;BME280;11495;55.610;12.100;2022-11-20T06:31:47;100886.34;;;-2.32;0.00
22657;BME280;11495;55.610;12.100;2022-11-20T06:34:12;100888.53;;;-2.42;0.00
22657;BME280;11495;55.610;12.100;2022-11-20T06:36:37;100895.97;;;-2.44;0.00
22657;BME280;11495;55.610;12.100;2022-11-20T06:39:03;100884.81;;;-2.41;0.00
22657;BME280;11495;55.610;12.100;2022-11-20T06:41:28;100882.78;;;-2.39;0.00
22657;BME280;11495;55.610;12.100;2022-11-20T06:43:53;100885.63;;;-2.41;0.00
22657;BME280;11495;55.610;12.100;2022-11-20T06:46:19;100883.88;;;-2.48;0.00
22657;BME280;11495;55.610;12.100;2022-11-20T06:48:45;100887.59;;;-2.49;0.00
22657;BME280;11495;55.610;12.100;2022-11-20T06:51:11;100882.88;;;-2.47;0.00
22657;BME280;11495;55.610;12.100;2022-11-20T06:53:37;100881.97;;;-2.55;0.00
22657;BME280;11495;55.610;12.100;2022-11-20T06:56:02;100881.03;;;-2.62;0.00
22657;BME280;11495;55.610;12.100;2022-11-20T06:58:28;100882.91;;;-2.62;0.00
22657;BME280;11495;55.610;12.100;2022-11-20T07:00:57;100882.44;;;-2.66;0.00
22657;BME280;11495;55.610;12.100;2022-11-20T07:03:22;100877.72;;;-2.64;0.00
22657;BME280;11495;55.610;12.100;2022-11-20T07:05:48;100879.00;;;-2.60;0.00
22657;BME280;11495;55.610;12.100;2022-11-20T07:08:13;100875.28;;;-2.59;0.00
22657;BME280;11495;55.610;12.100;2022-11-20T07:10:38;100870.47;;;-2.63;0.00
22657;BME280;11495;55.610;12.100;2022-11-20T07:13:04;100870.91;;;-2.60;0.00
22657;BME280;11495;55.610;12.100;2022-11-20T07:15:30;100877.63;;;-2.56;0.00
22657;BME280;11495;55.610;12.100;2022-11-20T07:17:57;100867.47;;;-2.53;0.00
22657;BME280;11495;55.610;12.100;2022-11-20T07:20:23;100871.00;;;-2.53;0.00
22657;BME280;11495;55.610;12.100;2022-11-20T07:22:53;100867.19;;;-2.59;0.00
22657;BME280;11495;55.610;12.100;2022-11-20T07:25:18;100870.09;;;-2.60;0.00
22657;BME280;11495;55.610;12.100;2022-11-20T07:27:43;100861.47;;;-2.56;0.00
22657;BME280;11495;55.610;12.100;2022-11-20T07:30:09;100854.37;;;-2.57;0.00
22657;BME280;11495;55.610;12.100;2022-11-20T07:32:34;100851.69;;;-2.57;0.00
22657;BME280;11495;55.610;12.100;2022-11-20T07:34:59;100853.19;;;-2.54;0.00
22657;BME280;11495;55.610;12.100;2022-11-20T07:37:25;100841.47;;;-2.46;0.00
22657;BME280;11495;55.610;12.100;2022-11-20T07:39:50;100838.41;;;-2.43;0.00
22657;BME280;11495;55.610;12.100;2022-11-20T07:42:15;100838.66;;;-2.38;0.00
22657;BME280;11495;55.610;12.100;2022-11-20T07:44:41;100834.00;;;-2.30;0.00
22657;BME280;11495;55.610;12.100;2022-11-20T07:47:06;100834.06;;;-2.23;0.00
22657;BME280;11495;55.610;12.100;2022-11-20T07:49:31;100831.06;;;-2.13;0.00
22657;BME280;11495;55.610;12.100;2022-11-20T07:51:57;100830.09;;;-2.06;0.00
22657;BME280;11495;55.610;12.100;2022-11-20T07:54:22;100827.28;;;-1.98;0.00
22657;BME280;11495;55.610;12.100;2022-11-20T07:56:48;100825.06;;;-1.87;0.00
22657;BME280;11495;55.610;12.100;2022-11-20T07:59:13;100816.59;;;-1.84;0.00
22657;BME280;11495;55.610;12.100;2022-11-20T08:01:39;100820.37;;;-1.79;0.00
22657;BME280;11495;55.610;12.100;2022-11-20T08:04:05;100813.75;;;-1.76;0.00
22657;BME280;11495;55.610;12.100;2022-11-20T08:06:30;100812.59;;;-1.67;0.00
22657;BME280;11495;55.610;12.100;2022-11-20T08:08:55;100813.69;;;-1.61;0.00
22657;BME280;11495;55.610;12.100;2022-11-20T08:11:21;100810.88;;;-1.47;0.00
22657;BME280;11495;55.610;12.100;2022-11-20T08:14:05;100812.19;;;-1.36;0.00
22657;BME280;11495;55.610;12.100;2022-11-20T08:16:36;100805.03;;;-1.22;0.00
22657;BME280;11495;55.610;12.100;2022-11-20T08:19:02;100798.63;;;-1.15;0.00
22657;BME280;11495;55.610;12.100;2022-11-20T08:21:27;100796.56;;;-1.12;0.00
22657;BME280;11495;55.610;12.100;2022-11-20T08:23:52;100805.69;;;-1.14;0.00
22657;BME280;11495;55.610;12.100;2022-11-20T08:26:18;100805.12;;;-1.02;0.00
22657;BME280;11495;55.610;12.100;2022-11-20T08:28:43;100806.41;;;-0.92;0.00
22657;BME280;11495;55.610;12.100;2022-11-20T08:31:09;100808.53;;;-0.87;0.00
22657;BME280;11495;55.610;12.100;2022-11-20T08:33:34;100809.34;;;-0.87;0.00
22657;BME280;11495;55.610;12.100;2022-11-20T08:36:00;100812.47;;;-0.90;0.00
22657;BME280;11495;55.610;12.100;2022-11-20T08:38:26;100819.13;;;-0.86;0.00
22657;BME280;11495;55.610;12.100;2022-11-20T08:40:51;100826.84;;;-0.82;0.00
22657;BME280;11495;55.610;12.100;2022-11-20T08:43:35;100831.03;;;-0.73;0.00
22657;BME280;11495;55.610;12.100;2022-11-20T08:46:00;100836.44;;;-0.73;0.00
22657;BME280;11495;55.610;12.100;2022-11-20T08:48:26;100843.91;;;-0.69;0.00
22657;BME280;11495;55.610;12.100;2022-11-20T08:50:51;100852.28;;;-0.57;0.00
22657;BME280;11495;55.610;12.100;2022-11-20T08:53:16;100862.44;;;-0.59;0.00
22657;BME280;11495;55.610;12.100;2022-11-20T08:55:41;100870.69;;;-0.67;0.00
22657;BME280;11495;55.610;12.100;2022-11-20T08:58:07;100872.19;;;-0.65;0.00
22657;BME280;11495;55.610;12.100;2022-11-20T09:00:32;100887.72;;;-0.67;0.00
22657;BME280;11495;55.610;12.100;2022-11-20T09:02:58;100889.44;;;-0.59;0.00
22657;BME280;11495;55.610;12.100;2022-11-20T09:05:25;100890.75;;;-0.48;0.00
22657;BME280;11495;55.610;12.100;2022-11-20T09:07:50;100903.62;;;-0.44;0.00
22657;BME280;11495;55.610;12.100;2022-11-20T09:10:16;100906.34;;;-0.44;0.00
22657;BME280;11495;55.610;12.100;2022-11-20T09:12:41;100918.81;;;-0.43;0.00
22657;BME280;11495;55.610;12.100;2022-11-20T09:15:06;100937.03;;;-0.51;0.00
22657;BME280;11495;55.610;12.100;2022-11-20T09:17:32;100939.38;;;-0.48;0.00
22657;BME280;11495;55.610;12.100;2022-11-20T09:19:57;100946.47;;;-0.41;0.00
22657;BME280;11495;55.610;12.100;2022-11-20T09:22:23;100970.38;;;-0.38;0.00
22657;BME280;11495;55.610;12.100;2022-11-20T09:24:48;100967.09;;;-0.33;0.00
22657;BME280;11495;55.610;12.100;2022-11-20T09:27:14;100970.25;;;-0.23;0.00
22657;BME280;11495;55.610;12.100;2022-11-20T09:29:39;100975.44;;;-0.21;0.00
22657;BME280;11495;55.610;12.100;2022-11-20T09:32:04;100986.31;;;-0.08;0.00
22657;BME280;11495;55.610;12.100;2022-11-20T09:34:30;100998.59;;;-0.06;0.00
22657;BME280;11495;55.610;12.100;2022-11-20T09:36:55;101001.56;;;0.13;0.00
22657;BME280;11495;55.610;12.100;2022-11-20T09:39:20;101019.44;;;0.07;0.00
22657;BME280;11495;55.610;12.100;2022-11-20T09:49:34;101075.91;;;0.30;0.00
22657;BME280;11495;55.610;12.100;2022-11-20T09:52:54;101097.81;;;0.42;0.00
22657;BME280;11495;55.610;12.100;2022-11-20T09:54:49;101114.91;;;0.55;0.00
22657;BME280;11495;55.610;12.100;2022-11-20T09:57:17;101147.84;;;0.59;0.00
22657;BME280;11495;55.610;12.100;2022-11-20T09:59:45;101164.72;;;0.74;0.00
22657;BME280;11495;55.610;12.100;2022-11-20T10:02:27;101162.53;;;0.98;0.00
22657;BME280;11495;55.610;12.100;2022-11-20T10:04:59;101188.63;;;1.12;0.00
22657;BME280;11495;55.610;12.100;2022-11-20T10:07:38;101215.09;;;1.23;0.00
22657;BME280;11495;55.610;12.100;2022-11-20T10:10:18;101241.59;;;1.34;0.00
22657;BME280;11495;55.610;12.100;2022-11-20T10:25:44;101416.16;;;1.53;0.00
22657;BME280;11495;55.610;12.100;2022-11-20T10:30:41;101494.22;;;1.36;0.00
22657;BME280;11495;55.610;12.100;2022-11-20T10:33:13;101521.72;;;1.33;0.00
22657;BME280;11495;55.610;12.100;2022-11-20T10:35:44;101555.84;;;1.28;0.00
22657;BME280;11495;55.610;12.100;2022-11-20T10:38:21;101569.13;;;1.44;0.00
22657;BME280;11495;55.610;12.100;2022-11-20T10:40:51;101591.69;;;1.51;0.00
22657;BME280;11495;55.610;12.100;2022-11-20T10:43:23;101612.59;;;1.57;0.00
22657;BME280;11495;55.610;12.100;2022-11-20T10:45:57;101624.53;;;1.91;0.00
22657;BME280;11495;55.610;12.100;2022-11-20T10:48:27;101667.25;;;1.89;0.00
22657;BME280;11495;55.610;12.100;2022-11-20T10:50:55;101675.44;;;2.23;0.00
22657;BME280;11495;55.610;12.100;2022-11-20T10:53:37;101710.16;;;2.35;0.00
22657;BME280;11495;55.610;12.100;2022-11-20T10:56:07;101762.88;;;2.53;0.00
22657;BME280;11495;55.610;12.100;2022-11-20T11:01:05;101890.75;;;2.59;0.00
22657;BME280;11495;55.610;12.100;2022-11-20T11:03:31;101926.34;;;2.70;0.00
22657;BME280;11495;55.610;12.100;2022-11-20T11:08:40;102001.94;;;2.88;0.00
22657;BME280;11495;55.610;12.100;2022-11-20T11:13:37;102102.81;;;2.64;0.00
22657;BME280;11495;55.610;12.100;2022-11-20T11:16:03;102129.50;;;2.75;0.00
22657;BME280;11495;55.610;12.100;2022-11-20T11:18:32;102141.00;;;2.77;0.00
22657;BME280;11495;55.610;12.100;2022-11-20T11:20:59;102172.41;;;2.65;0.00
22657;BME280;11495;55.610;12.100;2022-11-20T11:25:58;102200.97;;;2.75;0.00
22657;BME280;11495;55.610;12.100;2022-11-20T11:28:24;102206.84;;;2.79;0.00
22657;BME280;11495;55.610;12.100;2022-11-20T11:30:51;102229.81;;;2.47;0.00
22657;BME280;11495;55.610;12.100;2022-11-20T11:33:20;102237.03;;;2.54;0.00
22657;BME280;11495;55.610;12.100;2022-11-20T11:35:47;102241.06;;;2.73;0.00
22657;BME280;11495;55.610;12.100;2022-11-20T11:38:18;102241.94;;;2.95;0.00
22657;BME280;11495;55.610;12.100;2022-11-20T11:40:44;102249.66;;;2.92;0.00
22657;BME280;11495;55.610;12.100;2022-11-20T11:43:16;102246.44;;;3.03;0.00
22657;BME280;11495;55.610;12.100;2022-11-20T11:46:01;102247.69;;;3.22;0.00
22657;BME280;11495;55.610;12.100;2022-11-20T11:48:26;102251.09;;;3.45;0.00
22657;BME280;11495;55.610;12.100;2022-11-20T11:50:51;102252.16;;;3.44;0.00
22657;BME280;11495;55.610;12.100;2022-11-20T11:53:21;102254.88;;;3.87;0.00
22657;BME280;11495;55.610;12.100;2022-11-20T11:56:08;102255.38;;;3.97;0.00
22657;BME280;11495;55.610;12.100;2022-11-20T11:58:38;102243.91;;;3.37;0.00
22657;BME280;11495;55.610;12.100;2022-11-20T12:03:35;102228.97;;;2.91;0.00
22657;BME280;11495;55.610;12.100;2022-11-20T12:06:04;102229.53;;;2.71;0.00
22657;BME280;11495;55.610;12.100;2022-11-20T12:08:32;102227.84;;;2.56;0.00
22657;BME280;11495;55.610;12.100;2022-11-20T12:11:17;102224.38;;;2.17;0.00
22657;BME280;11495;55.610;12.100;2022-11-20T12:13:55;102220.91;;;2.09;0.00
22657;BME280;11495;55.610;12.100;2022-11-20T12:16:23;102223.44;;;2.10;0.00
22657;BME280;11495;55.610;12.100;2022-11-20T12:18:49;102219.53;;;1.90;0.00
22657;BME280;11495;55.610;12.100;2022-11-20T12:21:19;102219.72;;;1.88;0.00
22657;BME280;11495;55.610;12.100;2022-11-20T12:23:52;102214.88;;;1.84;0.00
22657;BME280;11495;55.610;12.100;2022-11-20T12:34:09;102195.03;;;1.98;0.00
22657;BME280;11495;55.610;12.100;2022-11-20T12:36:40;102189.19;;;1.72;0.00
22657;BME280;11495;55.610;12.100;2022-11-20T12:41:51;102182.53;;;1.59;0.00
22657;BME280;11495;55.610;12.100;2022-11-20T12:44:57;102177.41;;;1.64;0.00
22657;BME280;11495;55.610;12.100;2022-11-20T12:53:03;102182.53;;;1.59;0.00
22657;BME280;11495;55.610;12.100;2022-11-20T13:00:46;102170.28;;;1.26;0.00
22657;BME280;11495;55.610;12.100;2022-11-20T13:08:28;102165.97;;;1.31;0.00
22657;BME280;11495;55.610;12.100;2022-11-20T13:10:56;102164.59;;;1.35;0.00
22657;BME280;11495;55.610;12.100;2022-11-20T13:13:30;102167.75;;;1.24;0.00
22657;BME280;11495;55.610;12.100;2022-11-20T13:16:00;102153.75;;;1.12;0.00
22657;BME280;11495;55.610;12.100;2022-11-20T13:18:27;102152.31;;;1.02;0.00
22657;BME280;11495;55.610;12.100;2022-11-20T13:20:56;102153.41;;;0.93;0.00
22657;BME280;11495;55.610;12.100;2022-11-20T13:23:25;102142.25;;;0.88;0.00
22657;BME280;11495;55.610;12.100;2022-11-20T13:25:50;102138.50;;;0.89;0.00
22657;BME280;11495;55.610;12.100;2022-11-20T13:30:50;102128.81;;;0.71;0.00
22657;BME280;11495;55.610;12.100;2022-11-20T13:35:58;102123.75;;;0.68;0.00
22657;BME280;11495;55.610;12.100;2022-11-20T13:38:24;102124.09;;;0.65;0.00
22657;BME280;11495;55.610;12.100;2022-11-20T13:40:50;102115.88;;;0.59;0.00
22657;BME280;11495;55.610;12.100;2022-11-20T13:45:41;102091.66;;;0.57;0.00
22657;BME280;11495;55.610;12.100;2022-11-20T13:48:23;102077.19;;;0.50;0.00
22657;BME280;11495;55.610;12.100;2022-11-20T13:50:58;102074.75;;;0.55;0.00
22657;BME280;11495;55.610;12.100;2022-11-20T13:56:09;102049.19;;;0.35;0.00
22657;BME280;11495;55.610;12.100;2022-11-20T13:58:40;102052.22;;;0.32;0.00
22657;BME280;11495;55.610;12.100;2022-11-20T14:01:10;102039.91;;;0.29;0.00
22657;BME280;11495;55.610;12.100;2022-11-20T14:03:38;102036.22;;;0.22;0.00
22657;BME280;11495;55.610;12.100;2022-11-20T14:06:05;102032.88;;;0.20;0.00
22657;BME280;11495;55.610;12.100;2022-11-20T14:08:48;102019.53;;;0.18;0.00
22657;BME280;11495;55.610;12.100;2022-11-20T14:11:18;102017.00;;;0.17;0.00
22657;BME280;11495;55.610;12.100;2022-11-20T14:13:57;102000.28;;;0.13;0.00
22657;BME280;11495;55.610;12.100;2022-11-20T14:16:23;101995.56;;;0.07;0.00
22657;BME280;11495;55.610;12.100;2022-11-20T14:18:49;101984.94;;;0.06;0.00
22657;BME280;11495;55.610;12.100;2022-11-20T14:21:24;101973.28;;;0.05;0.00
22657;BME280;11495;55.610;12.100;2022-11-20T14:23:52;101947.06;;;0.06;0.00